Time;durP1;ratioP1;P1;durP2;ratioP2;P2;SDS_P1;SDS_P2;PMS_P1;PMS_P2;Temp;Humidity;BMP_temperature;BMP_pressure;BME280_temperature;BME280_humidity;BME280_pressure;Samples;Min_cycle;Max_cycle;Signal;HPM_P1;HPM_P2
2022/01/24 00:00:18;;;;;;;17.10;11.10;;;;;;;15.27;43.11;94687.72;4924548;28;20027;-86
2022/01/24 00:02:44;;;;;;;14.65;11.45;;;;;;;15.28;43.10;94686.50;4943210;28;20039;-86
2022/01/24 00:05:10;;;;;;;11.15;9.15;;;;;;;15.28;42.90;94689.22;4923137;28;20558;-86
2022/01/24 00:07:36;;;;;;;12.13;9.27;;;;;;;15.26;42.96;94683.47;4967503;28;20038;-87
2022/01/24 00:10:06;;;;;;;14.60;10.15;;;;;;;15.23;43.06;94687.09;4958724;28;20102;-86
2022/01/24 00:12:45;;;;;;;13.27;9.35;;;;;;;15.19;43.13;94684.53;4960210;28;20038;-86
2022/01/24 00:15:25;;;;;;;18.50;12.63;;;;;;;15.21;43.16;94690.28;4976003;28;20043;-87
2022/01/24 00:18:04;;;;;;;13.20;10.00;;;;;;;15.16;43.21;94692.88;4958214;28;20039;-86
2022/01/24 00:28:22;;;;;;;13.05;9.52;;;;;;;15.20;43.26;94685.31;4960685;28;20342;-87
2022/01/24 00:30:48;;;;;;;10.52;8.40;;;;;;;15.18;43.28;94683.03;4957903;28;20035;-87
2022/01/24 00:33:14;;;;;;;18.40;13.43;;;;;;;15.16;43.29;94685.47;4942585;28;20042;-87
2022/01/24 00:35:39;;;;;;;15.35;10.98;;;;;;;15.20;42.78;94677.88;4960022;28;20035;-87
2022/01/24 00:38:05;;;;;;;14.02;10.52;;;;;;;15.22;43.07;94677.44;4958882;28;20035;-86
2022/01/24 00:40:38;;;;;;;12.80;9.27;;;;;;;15.21;43.09;94675.91;4959022;28;20058;-86
2022/01/24 00:43:09;;;;;;;16.83;11.43;;;;;;;15.19;43.07;94679.09;4945209;28;20495;-87
2022/01/24 00:45:54;;;;;;;14.52;10.65;;;;;;;15.19;43.15;94681.81;4958570;28;20085;-87
2022/01/24 00:53:50;;;;;;;19.05;11.57;;;;;;;15.26;43.14;94678.03;4960195;28;20117;-86
2022/01/24 00:56:15;;;;;;;21.05;13.35;;;;;;;15.18;43.43;94677.59;4987350;28;20043;-86
2022/01/24 00:58:41;;;;;;;14.77;10.43;;;;;;;15.17;43.11;94678.78;4942032;28;20039;-85
2022/01/24 01:01:06;;;;;;;15.07;10.80;;;;;;;15.16;43.17;94677.28;4970423;28;20573;-87
2022/01/24 01:03:32;;;;;;;15.45;11.77;;;;;;;15.13;43.31;94672.78;4955365;28;20051;-86
2022/01/24 01:19:23;;;;;;;18.73;12.57;;;;;;;15.24;43.00;94661.38;4941074;28;20587;-86
2022/01/24 01:21:49;;;;;;;12.57;9.60;;;;;;;15.19;43.00;94659.28;4954704;28;20039;-87
2022/01/24 01:24:16;;;;;;;15.52;11.07;;;;;;;15.18;43.16;94658.53;4938192;28;20036;-87
2022/01/24 01:26:47;;;;;;;13.48;9.60;;;;;;;15.20;43.42;94650.66;4955285;28;20050;-87
2022/01/24 01:29:19;;;;;;;14.07;10.30;;;;;;;15.17;43.48;94656.25;4955065;28;20035;-87
2022/01/24 01:56:05;;;;;;;15.98;11.95;;;;;;;15.18;43.16;94647.63;4919357;29;20035;-86
2022/01/24 01:58:30;;;;;;;14.13;10.25;;;;;;;15.24;42.87;94645.78;4917195;29;20051;-86
2022/01/24 02:00:57;;;;;;;12.68;9.40;;;;;;;15.21;43.06;94648.69;4917753;29;20044;-86
2022/01/24 02:03:23;;;;;;;17.80;12.30;;;;;;;15.20;43.10;94642.47;4900984;29;20055;-87
2022/01/24 02:05:49;;;;;;;16.63;11.60;;;;;;;15.17;43.02;94639.91;4934726;29;20043;-88
2022/01/24 02:08:16;;;;;;;15.25;10.35;;;;;;;15.19;43.10;94634.75;4910710;29;20043;-88
2022/01/24 02:10:42;;;;;;;12.82;9.18;;;;;;;15.24;43.04;94623.25;4922076;29;20040;-87
2022/01/24 02:13:08;;;;;;;16.92;11.20;;;;;;;15.25;43.00;94630.97;4924803;29;20412;-88
2022/01/24 02:18:11;;;;;;;11.75;8.88;;;;;;;15.22;43.04;94625.66;4931388;28;20040;-88
2022/01/24 02:20:54;;;;;;;15.35;11.50;;;;;;;15.22;43.08;94622.94;4939674;28;20057;-87
2022/01/24 02:25:50;;;;;;;13.77;9.68;;;;;;;15.20;43.12;94620.69;4953721;28;20035;-86
2022/01/24 02:28:17;;;;;;;11.80;9.30;;;;;;;15.16;43.03;94620.09;4936590;28;20039;-86
2022/01/24 02:33:33;;;;;;;18.83;12.70;;;;;;;15.11;43.28;94622.69;4940104;28;20042;-87
2022/01/24 02:35:58;;;;;;;14.50;10.80;;;;;;;15.15;43.26;94624.06;4954031;28;20039;-87
2022/01/24 02:38:39;;;;;;;15.40;10.40;;;;;;;15.11;43.21;94618.00;4953529;28;20042;-88
2022/01/24 02:49:33;;;;;;;16.27;11.32;;;;;;;15.21;43.02;94616.75;4954068;28;20406;-87
2022/01/24 02:52:03;;;;;;;16.80;12.02;;;;;;;15.23;42.91;94614.31;4986228;28;20158;-88
2022/01/24 02:54:30;;;;;;;13.63;10.43;;;;;;;15.19;42.97;94608.28;4954253;28;20067;-87
2022/01/24 02:56:56;;;;;;;13.60;9.80;;;;;;;15.19;43.03;94618.41;4955825;28;20510;-87
2022/01/24 02:59:21;;;;;;;10.77;8.90;;;;;;;15.20;42.88;94617.19;4956333;28;20043;-87
2022/01/24 03:01:47;;;;;;;18.10;12.27;;;;;;;15.21;42.95;94607.81;4954989;28;20047;-88
2022/01/24 03:04:12;;;;;;;15.85;11.82;;;;;;;15.18;43.15;94603.28;4984820;28;20097;-87
2022/01/24 03:06:38;;;;;;;13.48;9.75;;;;;;;15.17;43.18;94613.44;4968608;28;20126;-88
2022/01/24 03:09:04;;;;;;;16.40;12.55;;;;;;;15.15;43.09;94606.97;4936880;28;20174;-88
2022/01/24 03:11:50;;;;;;;14.45;10.85;;;;;;;15.16;43.00;94611.91;4934476;28;20059;-87
2022/01/24 03:14:15;;;;;;;16.00;12.90;;;;;;;15.18;43.11;94601.31;4933795;28;20074;-87
2022/01/24 03:16:40;;;;;;;18.85;13.13;;;;;;;15.17;43.00;94609.94;4906288;29;20042;-88
2022/01/24 03:19:06;;;;;;;16.33;11.45;;;;;;;15.17;43.04;94605.25;4937246;28;20087;-88
2022/01/24 03:21:31;;;;;;;13.02;9.93;;;;;;;15.22;42.92;94599.19;4922366;29;20043;-87
2022/01/24 03:23:57;;;;;;;16.92;11.27;;;;;;;15.20;43.17;94604.34;4937536;28;20040;-87
2022/01/24 03:26:23;;;;;;;13.65;9.63;;;;;;;15.21;42.99;94597.69;4938471;28;20039;-87
2022/01/24 03:28:49;;;;;;;19.55;13.27;;;;;;;15.16;43.22;94609.19;4936237;28;20051;-87
2022/01/24 03:31:14;;;;;;;15.00;10.50;;;;;;;15.15;43.19;94606.97;4938526;28;20032;-87
2022/01/24 03:33:40;;;;;;;13.07;9.45;;;;;;;15.16;42.94;94598.31;4938342;28;20884;-88
2022/01/24 03:36:06;;;;;;;17.73;9.95;;;;;;;15.24;42.87;94604.19;4938378;28;20040;-88
2022/01/24 03:38:31;;;;;;;14.30;10.55;;;;;;;15.23;42.86;94610.84;4937514;28;20048;-87
2022/01/24 03:40:58;;;;;;;13.38;9.50;;;;;;;15.20;43.05;94607.06;4939887;28;20515;-87
2022/01/24 03:43:24;;;;;;;13.25;9.88;;;;;;;15.23;42.87;94605.38;4934283;28;20039;-87
2022/01/24 03:46:10;;;;;;;16.80;11.88;;;;;;;15.21;42.98;94619.47;4922381;29;20040;-87
2022/01/24 03:48:39;;;;;;;16.02;11.13;;;;;;;15.21;42.80;94608.56;4948462;28;20458;-88
2022/01/24 03:51:05;;;;;;;14.75;10.63;;;;;;;15.18;42.84;94619.63;4988894;28;20039;-87
2022/01/24 03:53:30;;;;;;;18.90;13.40;;;;;;;15.16;43.33;94611.91;4973313;28;20506;-86
2022/01/24 03:55:56;;;;;;;14.85;10.30;;;;;;;15.15;43.09;94612.41;4989100;28;20405;-88
2022/01/24 03:58:21;;;;;;;13.63;10.27;;;;;;;15.17;43.07;94613.44;4971814;28;20055;-88
2022/01/24 04:00:46;;;;;;;14.52;10.73;;;;;;;15.15;43.11;94620.56;4961248;28;20061;-87
2022/01/24 04:03:14;;;;;;;21.27;15.32;;;;;;;15.16;43.11;94619.34;4959725;28;20046;-88
2022/01/24 04:05:39;;;;;;;14.15;10.38;;;;;;;15.18;43.14;94617.66;4978780;28;20481;-88
2022/01/24 04:08:05;;;;;;;13.18;9.85;;;;;;;15.18;43.02;94620.38;4992049;28;20047;-88
2022/01/24 04:10:39;;;;;;;12.32;9.50;;;;;;;15.20;42.79;94628.84;4961038;28;20046;-88
2022/01/24 04:13:09;;;;;;;13.18;9.65;;;;;;;15.21;42.66;94622.19;4962420;28;20121;-88
2022/01/24 04:15:45;;;;;;;16.55;11.23;;;;;;;15.21;42.85;94618.72;4978196;28;20494;-87
2022/01/24 04:18:28;;;;;;;17.33;13.00;;;;;;;15.23;42.83;94624.47;4961258;28;20035;-86
2022/01/24 04:23:41;;;;;;;12.18;9.43;;;;;;;15.19;43.57;94638.25;4961702;28;20038;-88
2022/01/24 04:26:07;;;;;;;13.90;10.40;;;;;;;15.15;43.11;94628.75;4958752;28;20379;-86
2022/01/24 04:28:32;;;;;;;15.13;9.73;;;;;;;15.16;43.16;94628.25;4959677;28;20108;-87
2022/01/24 04:30:57;;;;;;;18.17;12.52;;;;;;;15.13;42.91;94621.03;4961785;28;20030;-87
2022/01/24 04:33:23;;;;;;;13.23;9.25;;;;;;;15.15;42.91;94626.03;4960334;28;20049;-88
2022/01/24 04:35:48;;;;;;;14.27;9.52;;;;;;;15.23;42.70;94627.94;4944421;28;20043;-86
2022/01/24 04:38:15;;;;;;;15.02;10.85;;;;;;;15.16;43.12;94630.22;4959351;28;20035;-87
2022/01/24 04:40:41;;;;;;;14.48;11.43;;;;;;;15.17;43.10;94635.22;4973048;28;20122;-87
2022/01/24 04:43:45;;;;;;;13.48;10.30;;;;;;;15.17;43.13;94629.78;4943367;28;20043;-87
2022/01/24 04:54:25;;;;;;;22.70;14.70;;;;;;;15.15;43.12;94620.56;4940912;28;20096;-88
2022/01/24 04:56:41;;;;;;;19.05;11.57;;;;;;;15.17;42.94;94632.50;4942566;28;20036;-88
2022/01/24 04:59:08;;;;;;;20.90;13.93;;;;;;;15.15;43.15;94636.91;4925448;28;20039;-87
2022/01/24 05:01:33;;;;;;;16.05;10.50;;;;;;;15.14;43.10;94628.00;4937369;28;20393;-87
2022/01/24 05:03:58;;;;;;;14.25;10.70;;;;;;;15.13;43.28;94633.91;4937558;28;20040;-87
2022/01/24 05:06:24;;;;;;;13.98;9.38;;;;;;;15.15;43.10;94628.75;4935728;28;20036;-88
2022/01/24 05:08:49;;;;;;;14.85;11.63;;;;;;;15.16;42.99;94632.94;4926781;28;20039;-88
2022/01/24 05:11:20;;;;;;;17.45;11.60;;;;;;;15.17;43.00;94634.47;4955833;28;20035;-87
2022/01/24 05:24:32;;;;;;;15.75;10.45;;;;;;;15.20;42.99;94630.81;4955935;28;20054;-87
2022/01/24 05:26:57;;;;;;;15.68;11.55;;;;;;;15.27;43.00;94642.16;4946213;28;20050;-88
2022/01/24 05:29:22;;;;;;;13.27;10.30;;;;;;;15.36;44.76;94641.38;4964166;28;20036;-86
2022/01/24 05:31:48;;;;;;;53.20;37.45;;;;;;;15.37;43.20;94631.97;4954082;28;21442;-89
2022/01/24 05:34:13;;;;;;;140.30;99.45;;;;;;;15.33;43.00;94636.84;4955936;28;20049;-89
2022/01/24 05:36:39;;;;;;;48.42;34.55;;;;;;;15.33;43.16;94634.13;4936276;28;20487;-89
2022/01/24 05:39:05;;;;;;;20.95;14.40;;;;;;;15.45;43.70;94635.88;4956864;28;20432;-87
2022/01/24 05:41:32;;;;;;;570.58;372.60;;;;;;;15.53;43.44;94626.16;4960235;28;20130;-86
2022/01/24 05:43:59;;;;;;;258.58;175.80;;;;;;;15.55;43.03;94631.13;4965879;28;20043;-89
2022/01/24 05:46:25;;;;;;;20.92;14.43;;;;;;;15.44;42.88;94620.72;4954837;28;20039;-90
2022/01/24 05:48:51;;;;;;;24.08;13.13;;;;;;;15.40;42.84;94625.59;4950726;28;20035;-89
2022/01/24 05:51:17;;;;;;;20.60;13.60;;;;;;;15.40;42.94;94628.31;4952672;28;20077;-86
2022/01/24 05:53:42;;;;;;;24.80;16.13;;;;;;;15.42;42.87;94632.09;4934097;28;20047;-84
2022/01/24 05:56:08;;;;;;;24.52;16.02;;;;;;;15.36;43.27;94639.41;4947236;28;20039;-89
2022/01/24 05:58:33;;;;;;;34.80;19.15;;;;;;;15.37;42.88;94629.97;4949050;28;20571;-86
2022/01/24 06:00:59;;;;;;;37.28;18.65;;;;;;;15.35;43.24;94643.34;4949473;28;20466;-83
2022/01/24 06:03:24;;;;;;;49.47;21.08;;;;;;;15.34;42.50;94639.09;4953140;28;20403;-87
2022/01/24 06:05:52;;;;;;;36.90;21.02;;;;;;;15.36;42.76;94633.94;4939505;28;20054;-90
2022/01/24 06:08:17;;;;;;;54.40;21.88;;;;;;;15.41;42.79;94638.75;4941226;28;20477;-86
2022/01/24 06:10:44;;;;;;;65.85;22.38;;;;;;;15.36;42.64;94639.41;4954188;28;20074;-85
2022/01/24 06:13:10;;;;;;;81.80;26.10;;;;;;;15.38;42.79;94628.03;4918243;28;20035;-85
2022/01/24 06:15:35;;;;;;;78.38;23.98;;;;;;;15.32;43.08;94638.06;4951676;28;20055;-85
2022/01/24 06:18:01;;;;;;;60.92;24.35;;;;;;;15.38;43.06;94636.19;4948681;28;20074;-84
2022/01/24 06:20:26;;;;;;;84.00;31.35;;;;;;;15.37;42.91;94627.25;4934286;28;20297;-89
2022/01/24 06:22:52;;;;;;;99.47;34.13;;;;;;;15.38;42.99;94628.78;4954930;28;20039;-85
2022/01/24 06:25:22;;;;;;;92.03;32.55;;;;;;;15.42;42.77;94626.63;4935765;28;20419;-86
2022/01/24 06:27:47;;;;;;;246.15;69.30;;;;;;;15.32;41.31;94632.59;4923646;28;20110;-84
2022/01/24 06:30:13;;;;;;;432.10;84.03;;;;;;;15.30;40.72;94633.06;4934068;28;20388;-87
2022/01/24 06:32:39;;;;;;;264.63;64.93;;;;;;;15.35;41.26;94639.88;4917362;28;20669;-87
2022/01/24 06:35:05;;;;;;;238.35;60.88;;;;;;;15.37;41.28;94631.97;4926276;28;20035;-86
2022/01/24 06:37:31;;;;;;;148.95;46.95;;;;;;;15.36;41.62;94633.19;4923968;29;20043;-86
2022/01/24 06:39:56;;;;;;;142.85;40.88;;;;;;;15.37;41.46;94640.88;4921920;29;20055;-87
2022/01/24 06:42:32;;;;;;;133.23;43.58;;;;;;;15.35;42.17;94640.63;4924581;28;20402;-89
2022/01/24 06:44:58;;;;;;;117.05;40.42;;;;;;;15.36;42.52;94630.47;4947121;28;20388;-90
2022/01/24 06:47:32;;;;;;;95.57;38.85;;;;;;;15.40;42.49;94631.03;4924735;28;20052;-89
2022/01/24 06:49:58;;;;;;;121.45;45.45;;;;;;;15.47;42.31;94636.16;4941934;28;20043;-88
2022/01/24 06:52:24;;;;;;;83.75;29.80;;;;;;;15.31;40.29;94648.19;4940611;28;20047;-88
2022/01/24 06:54:53;;;;;;;57.97;20.33;;;;;;;15.11;38.40;94650.69;4928700;29;20055;-87
2022/01/24 06:57:19;;;;;;;35.05;15.05;;;;;;;15.00;36.71;94653.13;4959708;28;20042;-87
2022/01/24 06:59:45;;;;;;;28.52;13.30;;;;;;;14.93;36.74;94650.75;4929866;28;20050;-84
2022/01/24 07:02:11;;;;;;;52.80;14.23;;;;;;;14.93;36.95;94656.94;4946771;28;20637;-86
2022/01/24 07:04:39;;;;;;;42.53;13.68;;;;;;;14.97;37.33;94662.22;4924090;28;20050;-86
2022/01/24 07:07:07;;;;;;;49.83;21.02;;;;;;;15.07;37.75;94652.81;4936695;28;20163;-85
2022/01/24 07:09:33;;;;;;;80.53;29.00;;;;;;;15.09;38.54;94664.00;4928243;28;20137;-86
2022/01/24 07:11:59;;;;;;;65.15;26.25;;;;;;;15.11;39.26;94660.84;4941113;28;20498;-86
2022/01/24 07:14:26;;;;;;;111.93;57.88;;;;;;;15.22;40.28;94667.28;4931926;28;20044;-86
2022/01/24 07:19:23;;;;;;;84.10;36.03;;;;;;;15.37;40.71;94672.84;4938861;28;20503;-86
2022/01/24 07:21:49;;;;;;;77.93;34.45;;;;;;;15.39;40.87;94675.84;4921819;29;20086;-88
2022/01/24 07:24:14;;;;;;;75.68;36.33;;;;;;;15.46;40.64;94674.78;4937506;28;20036;-83
2022/01/24 07:26:40;;;;;;;75.40;36.55;;;;;;;15.49;40.44;94674.59;4953230;28;20373;-85
2022/01/24 07:29:05;;;;;;;44.47;24.30;;;;;;;15.25;38.61;94679.25;4932171;28;20568;-87
2022/01/24 07:31:31;;;;;;;114.72;53.40;;;;;;;15.21;38.89;94679.41;4927679;28;20803;-89
2022/01/24 07:33:56;;;;;;;67.68;36.03;;;;;;;15.17;39.34;94680.75;4910485;29;20461;-89
2022/01/24 07:36:27;;;;;;;68.95;33.40;;;;;;;15.20;39.41;94694.22;4911213;28;20066;-90
2022/01/24 07:38:53;;;;;;;62.70;33.10;;;;;;;15.27;40.06;94701.34;4955126;28;20047;-87
2022/01/24 07:41:25;;;;;;;69.38;34.83;;;;;;;15.24;39.86;94694.81;4927476;28;20043;-89
2022/01/24 07:43:51;;;;;;;77.05;36.90;;;;;;;15.20;40.52;94698.91;4936838;28;20042;-88
2022/01/24 07:46:17;;;;;;;91.65;40.33;;;;;;;15.32;40.58;94696.03;4935641;28;20040;-90
2022/01/24 07:48:42;;;;;;;75.03;36.47;;;;;;;15.28;40.48;94702.84;4954260;28;20047;-89
2022/01/24 07:51:08;;;;;;;83.05;37.70;;;;;;;15.24;40.46;94708.44;4925997;28;20048;-88
2022/01/24 07:53:34;;;;;;;145.30;49.67;;;;;;;15.31;40.52;94710.09;4943627;28;20044;-88
2022/01/24 07:56:01;;;;;;;119.35;46.95;;;;;;;15.21;40.48;94714.06;4943384;28;20039;-88
2022/01/24 07:58:28;;;;;;;126.15;48.55;;;;;;;15.24;40.60;94710.41;4925808;29;20036;-89
2022/01/24 08:00:54;;;;;;;112.53;45.75;;;;;;;15.30;41.28;94712.06;4922438;29;20129;-88
2022/01/24 08:03:19;;;;;;;120.75;48.95;;;;;;;15.32;40.28;94703.44;4938391;28;20499;-86
2022/01/24 08:05:45;;;;;;;119.70;51.08;;;;;;;15.29;40.54;94694.22;4919433;28;20039;-87
2022/01/24 08:08:10;;;;;;;140.57;54.40;;;;;;;15.36;40.64;94696.63;4902197;28;20043;-89
2022/01/24 08:10:35;;;;;;;121.20;50.50;;;;;;;15.34;40.64;94690.88;4929486;28;20106;-89
2022/01/24 08:13:01;;;;;;;133.98;54.88;;;;;;;15.32;40.78;94706.91;4919533;29;20039;-91
2022/01/24 08:15:27;;;;;;;138.43;51.15;;;;;;;15.37;40.45;94703.56;4944933;28;20038;-90
2022/01/24 08:17:54;;;;;;;127.03;51.33;;;;;;;15.37;40.68;94713.72;4946445;28;20043;-88
2022/01/24 08:20:21;;;;;;;131.32;50.95;;;;;;;15.34;40.77;94715.38;4944710;28;20045;-87
2022/01/24 08:22:47;;;;;;;115.88;48.03;;;;;;;15.47;40.85;94717.16;4935193;29;20030;-89
2022/01/24 08:25:12;;;;;;;125.55;50.13;;;;;;;15.35;40.71;94716.16;4945734;28;20039;-87
2022/01/24 08:27:38;;;;;;;135.15;50.95;;;;;;;15.37;40.75;94716.44;4923834;29;20521;-87
2022/01/24 08:30:09;;;;;;;121.57;49.20;;;;;;;15.45;40.95;94720.34;4940388;28;20043;-90
2022/01/24 08:32:34;;;;;;;126.78;51.10;;;;;;;15.40;40.67;94721.72;4939209;29;20191;-87
2022/01/24 08:35:00;;;;;;;105.50;48.33;;;;;;;15.37;40.75;94721.91;4924905;29;20039;-86
2022/01/24 08:37:25;;;;;;;124.05;50.97;;;;;;;15.35;40.83;94721.59;4955741;28;20038;-88
2022/01/24 08:39:51;;;;;;;117.88;49.25;;;;;;;15.43;40.77;94715.34;4932727;28;20157;-86
2022/01/24 08:42:41;;;;;;;145.32;55.85;;;;;;;15.39;40.85;94722.91;4943083;28;20728;-88
2022/01/24 08:47:35;;;;;;;111.43;51.35;;;;;;;15.41;40.92;94725.19;4958584;28;20127;-87
2022/01/24 08:50:00;;;;;;;173.70;82.22;;;;;;;15.46;40.84;94721.84;4928192;29;20051;-87
2022/01/24 08:52:32;;;;;;;175.93;77.63;;;;;;;15.47;40.79;94720.63;4930090;28;20047;-87
2022/01/24 08:54:57;;;;;;;219.20;103.18;;;;;;;15.51;40.54;94720.47;4919877;29;20048;-87
2022/01/24 08:57:26;;;;;;;222.30;95.20;;;;;;;15.46;40.89;94727.31;4914051;28;20044;-87
2022/01/24 08:59:53;;;;;;;309.17;118.45;;;;;;;15.49;40.88;94720.19;4961379;28;20043;-89
2022/01/24 09:02:18;;;;;;;244.50;105.93;;;;;;;15.49;40.64;94723.66;4929647;28;20053;-88
2022/01/24 09:04:44;;;;;;;238.07;107.95;;;;;;;15.63;40.89;94733.91;4943165;29;20043;-89
2022/01/24 09:07:10;;;;;;;264.60;124.07;;;;;;;15.57;40.75;94733.06;4945922;28;20043;-91
2022/01/24 09:09:38;;;;;;;260.27;124.97;;;;;;;15.58;41.00;94734.56;4929486;29;20040;-89
2022/01/24 09:12:32;;;;;;;231.20;113.03;;;;;;;15.56;40.58;94728.06;4939472;28;20066;-89
2022/01/24 09:14:58;;;;;;;245.98;117.35;;;;;;;15.56;40.67;94731.53;4938166;28;20044;-87
2022/01/24 09:17:24;;;;;;;219.98;111.63;;;;;;;15.54;40.96;94727.75;4932662;29;20114;-87
2022/01/24 09:19:49;;;;;;;216.00;111.78;;;;;;;15.56;40.99;94741.69;4932934;29;20795;-86
2022/01/24 09:22:15;;;;;;;224.90;101.60;;;;;;;15.63;40.34;94739.38;4921417;29;20330;-87
2022/01/24 09:25:01;;;;;;;211.60;96.28;;;;;;;15.54;40.54;94741.38;4903509;29;20039;-89
2022/01/24 09:27:29;;;;;;;234.68;102.30;;;;;;;15.48;40.37;94743.19;4934517;29;20048;-89
2022/01/24 09:29:54;;;;;;;203.13;103.68;;;;;;;15.52;40.69;94751.97;4916264;29;20047;-89
2022/01/24 09:32:22;;;;;;;214.65;105.30;;;;;;;15.55;40.47;94746.34;4930442;28;20048;-90
2022/01/24 09:34:48;;;;;;;207.38;97.57;;;;;;;15.55;40.55;94743.63;4901730;29;20546;-89
2022/01/24 09:37:14;;;;;;;205.75;99.28;;;;;;;15.53;40.74;94751.50;4894518;29;20120;-87
2022/01/24 09:39:39;;;;;;;220.15;101.03;;;;;;;15.52;41.02;94747.28;4915780;29;20044;-89
2022/01/24 09:42:06;;;;;;;183.73;92.25;;;;;;;15.52;40.87;94750.00;4932831;29;20055;-88
2022/01/24 09:44:33;;;;;;;186.30;89.28;;;;;;;15.57;40.75;94754.84;4904606;29;20191;-89
2022/01/24 09:46:58;;;;;;;157.93;75.38;;;;;;;15.61;40.46;94755.44;4904118;29;20114;-89
2022/01/24 09:49:40;;;;;;;180.00;85.50;;;;;;;15.53;40.07;94748.03;4910995;29;20060;-90
2022/01/24 09:52:14;;;;;;;189.35;88.07;;;;;;;15.48;40.79;94740.47;4945434;28;20070;-90
2022/01/24 09:54:40;;;;;;;164.43;84.07;;;;;;;15.51;40.45;94748.47;4967288;28;20050;-88
2022/01/24 09:57:08;;;;;;;177.85;94.00;;;;;;;15.50;41.04;94743.50;4939114;28;20039;-89
2022/01/24 09:59:34;;;;;;;179.25;88.50;;;;;;;15.46;41.05;94745.63;4929026;28;20035;-89
2022/01/24 10:02:00;;;;;;;164.10;86.40;;;;;;;15.53;41.02;94743.34;4918334;29;20047;-89
2022/01/24 10:04:26;;;;;;;179.80;87.00;;;;;;;15.59;40.83;94746.22;4914924;29;20631;-87
2022/01/24 10:07:15;;;;;;;109.25;59.72;;;;;;;15.52;39.47;94741.81;4892724;29;20043;-88
2022/01/24 10:09:47;;;;;;;96.90;46.58;;;;;;;15.38;39.09;94737.00;4901441;29;20131;-88
2022/01/24 10:12:20;;;;;;;86.53;46.58;;;;;;;15.37;39.39;94735.53;4910286;29;20054;-92
2022/01/24 10:17:33;;;;;;;149.50;65.57;;;;;;;15.45;40.44;94739.41;4939675;29;20031;-91
2022/01/24 10:20:17;;;;;;;117.82;56.65;;;;;;;15.41;39.81;94733.38;4933683;29;20051;-90
2022/01/24 10:23:08;;;;;;;133.30;60.50;;;;;;;15.40;39.74;94734.56;4937494;29;20069;-93
2022/01/24 10:26:01;;;;;;;140.87;70.43;;;;;;;15.41;40.31;94725.19;4913085;29;20654;-88
2022/01/24 10:28:31;;;;;;;145.82;70.38;;;;;;;15.43;40.67;94734.41;4916337;29;20278;-86
2022/01/24 10:31:23;;;;;;;142.68;71.35;;;;;;;15.46;40.84;94729.25;4926459;28;20036;-88
2022/01/24 10:33:53;;;;;;;169.30;75.38;;;;;;;15.47;41.66;94728.06;4911110;29;20033;-90
2022/01/24 10:36:34;;;;;;;139.27;73.15;;;;;;;15.50;41.50;94718.97;4946096;28;20051;-87
2022/01/24 10:39:55;;;;;;;133.35;70.30;;;;;;;15.51;41.31;94726.69;4916510;29;20059;-90
2022/01/24 10:42:52;;;;;;;149.75;72.97;;;;;;;15.51;41.54;94728.66;4927565;29;20647;-92
2022/01/24 10:45:21;;;;;;;161.20;82.40;;;;;;;15.53;41.62;94715.31;4917396;29;20043;-92
2022/01/24 10:47:48;;;;;;;136.43;71.10;;;;;;;15.51;41.49;94715.03;4888416;29;20059;-93
2022/01/24 10:50:43;;;;;;;160.23;76.97;;;;;;;15.53;41.49;94705.19;4888404;29;20140;-93
2022/01/24 10:55:40;;;;;;;140.48;75.50;;;;;;;15.54;41.53;94703.97;4975373;23;20026;-92
2022/01/24 10:58:06;;;;;;;152.20;77.68;;;;;;;15.56;41.37;94701.56;4932652;28;20047;-88
2022/01/24 11:00:32;;;;;;;222.40;94.57;;;;;;;15.67;41.64;94707.25;4966760;28;20042;-92
2022/01/24 11:03:03;;;;;;;203.40;92.03;;;;;;;15.66;41.12;94697.56;4931746;28;20094;-89
2022/01/24 11:05:33;;;;;;;180.93;86.00;;;;;;;15.67;41.22;94703.78;4915753;28;20249;-86
2022/01/24 11:07:59;;;;;;;176.38;91.53;;;;;;;15.65;41.45;94700.75;4951581;28;20043;-87
2022/01/24 11:10:27;;;;;;;185.50;89.50;;;;;;;15.66;41.40;94703.03;4959176;28;20057;-89
2022/01/24 11:12:53;;;;;;;169.02;89.05;;;;;;;15.67;41.53;94698.31;4923823;28;20043;-88
2022/01/24 11:15:22;;;;;;;156.82;85.63;;;;;;;15.71;41.33;94698.91;4938940;28;20053;-88
2022/01/24 11:17:48;;;;;;;158.93;83.05;;;;;;;15.72;41.60;94686.78;4923927;28;20039;-88
2022/01/24 11:20:14;;;;;;;147.75;77.00;;;;;;;15.69;41.43;94690.44;4946218;28;20063;-89
2022/01/24 11:22:43;;;;;;;148.10;81.97;;;;;;;15.72;41.54;94673.16;4939021;28;20035;-87
2022/01/24 11:25:09;;;;;;;143.80;74.93;;;;;;;15.78;41.49;94682.22;4917009;28;20549;-86
2022/01/24 11:27:35;;;;;;;134.63;74.05;;;;;;;15.74;41.20;94681.63;4934888;28;20042;-89
2022/01/24 11:30:20;;;;;;;129.27;69.53;;;;;;;15.71;41.23;94690.72;4958326;28;20477;-86
2022/01/24 11:33:04;;;;;;;122.95;66.05;;;;;;;15.80;41.24;94687.22;4935372;28;20118;-86
2022/01/24 11:35:38;;;;;;;121.75;68.40;;;;;;;15.78;41.59;94695.84;4954901;28;20069;-87
2022/01/24 11:38:04;;;;;;;116.70;65.80;;;;;;;15.82;41.41;94688.25;4960146;28;20039;-87
2022/01/24 11:40:44;;;;;;;114.65;64.18;;;;;;;15.77;41.80;94678.75;4949954;28;20046;-86
2022/01/24 11:43:27;;;;;;;105.97;59.05;;;;;;;15.83;41.86;94686.28;4929643;28;20043;-87
2022/01/24 11:46:06;;;;;;;103.75;59.83;;;;;;;15.90;41.62;94694.13;4938119;28;20494;-85
2022/01/24 11:48:32;;;;;;;96.65;58.67;;;;;;;15.84;41.33;94690.50;4959186;28;20067;-87
2022/01/24 11:51:11;;;;;;;102.45;58.70;;;;;;;15.80;41.61;94679.03;4961052;28;20040;-90
2022/01/24 11:53:41;;;;;;;109.65;58.25;;;;;;;15.79;41.54;94675.56;4944408;28;20417;-87
2022/01/24 11:56:18;;;;;;;99.88;56.50;;;;;;;15.76;41.63;94662.84;4940649;28;20058;-89
2022/01/24 11:58:44;;;;;;;87.18;53.17;;;;;;;15.78;41.42;94682.22;4944528;28;20042;-88
2022/01/24 12:01:14;;;;;;;98.70;54.53;;;;;;;15.77;41.49;94675.25;4959527;28;20043;-90
2022/01/24 12:03:49;;;;;;;102.40;53.27;;;;;;;15.76;41.78;94679.22;4949778;28;20049;-88
2022/01/24 12:06:19;;;;;;;92.65;52.45;;;;;;;15.75;41.87;94681.19;4927301;28;20035;-88
2022/01/24 12:08:47;;;;;;;101.35;51.30;;;;;;;15.79;41.75;94672.84;4936318;28;20042;-91
2022/01/24 12:11:22;;;;;;;94.43;51.58;;;;;;;15.74;41.65;94674.22;4945848;28;20059;-89
2022/01/24 12:13:54;;;;;;;108.13;52.58;;;;;;;15.81;41.52;94675.06;4929770;28;20039;-88
2022/01/24 12:16:20;;;;;;;105.90;53.55;;;;;;;15.77;41.83;94678.75;4953110;28;20074;-90
2022/01/24 12:18:47;;;;;;;103.28;52.05;;;;;;;15.82;41.57;94676.59;4940249;28;20039;-87
2022/01/24 12:21:20;;;;;;;129.30;63.42;;;;;;;15.84;41.90;94674.91;4923409;29;20035;-87
2022/01/24 12:23:49;;;;;;;118.70;61.38;;;;;;;15.82;41.64;94677.34;4989506;28;20034;-92
2022/01/24 12:26:15;;;;;;;134.68;66.78;;;;;;;15.84;41.59;94677.63;4936121;28;20481;-90
2022/01/24 12:28:43;;;;;;;125.95;70.00;;;;;;;15.82;41.81;94677.34;4964390;28;20039;-90
2022/01/24 12:31:20;;;;;;;145.13;74.03;;;;;;;15.79;42.00;94677.53;4970810;28;20054;-87
2022/01/24 12:33:58;;;;;;;179.10;82.88;;;;;;;15.84;41.86;94683.09;4958146;28;20040;-90
2022/01/24 12:36:46;;;;;;;176.95;81.25;;;;;;;15.83;41.79;94684.31;4946964;28;20039;-86
2022/01/24 12:39:32;;;;;;;178.40;86.55;;;;;;;15.92;41.73;94683.50;4964899;28;20069;-89
2022/01/24 12:42:01;;;;;;;171.82;79.03;;;;;;;15.93;41.82;94674.88;4953189;28;20117;-84
2022/01/24 12:47:04;;;;;;;170.40;74.32;;;;;;;15.82;42.14;94677.34;4934388;28;20387;-91
2022/01/24 12:49:29;;;;;;;139.10;71.57;;;;;;;15.83;41.94;94675.38;4942797;28;20038;-85
2022/01/24 12:51:55;;;;;;;153.75;72.97;;;;;;;15.82;41.67;94676.59;4964930;28;20105;-88
2022/01/24 12:54:27;;;;;;;140.20;71.82;;;;;;;15.84;42.05;94676.88;4934579;28;20049;-90
2022/01/24 12:56:57;;;;;;;141.23;71.47;;;;;;;15.79;41.99;94667.38;4930764;28;20047;-90
2022/01/24 12:59:22;;;;;;;153.95;72.15;;;;;;;15.81;41.87;94666.88;4961606;28;20039;-89
2022/01/24 13:01:52;;;;;;;149.68;72.13;;;;;;;15.75;42.27;94656.66;4960953;28;20027;-86
2022/01/24 13:04:18;;;;;;;158.25;77.15;;;;;;;15.77;42.02;94664.34;4953149;28;20101;-87